createdAt,value
2023-02-03T01:37:03.380Z,93793.00
2023-02-03T01:38:03.431Z,93793.00
2023-02-03T01:39:03.484Z,93793.00
2023-02-03T01:40:03.552Z,93786.00
2023-02-03T01:41:03.604Z,93789.00
2023-02-03T01:42:03.668Z,93788.00
2023-02-03T01:43:03.790Z,93784.00
2023-02-03T01:44:03.729Z,93782.00
2023-02-03T01:45:03.774Z,93778.00
2023-02-03T01:46:03.828Z,93776.00
2023-02-03T01:47:03.831Z,93774.00
2023-02-03T01:48:03.871Z,93776.00
2023-02-03T01:49:03.978Z,93772.00
2023-02-03T01:50:03.941Z,93772.00
2023-02-03T01:51:03.953Z,93774.00
2023-02-03T01:52:03.983Z,93772.00
2023-02-03T02:08:04.501Z,93782.00
2023-02-03T02:09:04.525Z,93788.00
2023-02-03T02:10:04.548Z,93788.00
2023-02-03T02:12:04.621Z,93803.00
2023-02-03T02:13:04.709Z,93809.00
2023-02-03T02:14:04.677Z,93809.00
2023-02-03T02:15:04.710Z,93801.00
2023-02-03T02:16:04.757Z,93801.00
2023-02-03T02:17:04.841Z,93801.00
2023-02-03T02:18:04.794Z,93795.00
2023-02-03T02:19:04.817Z,93807.00
2023-02-03T02:22:04.906Z,93813.00
2023-02-03T02:23:04.993Z,93819.00
2023-02-03T02:24:04.950Z,93823.00
2023-02-03T02:25:04.958Z,93821.00
2023-02-03T02:26:04.975Z,93819.00
2023-02-03T02:27:04.976Z,93819.00
2023-02-03T02:28:05.007Z,93815.00
2023-02-03T02:29:05.004Z,93813.00
2023-02-03T02:30:05.003Z,93815.00
2023-02-03T02:31:05.886Z,93823.00
2023-02-03T02:32:05.112Z,93825.00
2023-02-03T02:33:05.030Z,93821.00
2023-02-03T02:34:05.035Z,93827.00
2023-02-03T02:35:05.036Z,93829.00
2023-02-03T02:36:05.061Z,93823.00
2023-02-03T02:37:05.071Z,93829.00
2023-02-03T02:38:05.160Z,93829.00
2023-02-03T02:39:05.110Z,93827.00
2023-02-03T02:40:05.136Z,93829.00
2023-02-03T02:41:05.127Z,93833.00
2023-02-03T02:42:05.120Z,93833.00
2023-02-03T02:43:05.137Z,93837.00
2023-02-03T02:44:05.159Z,93837.00
2023-02-03T02:45:05.160Z,93841.00
2023-02-03T02:46:05.844Z,93841.00
2023-02-03T02:47:05.179Z,93839.00
2023-02-03T02:48:05.185Z,93843.00
2023-02-03T02:49:05.194Z,93846.00
2023-02-03T02:50:05.276Z,93848.00
2023-02-03T02:51:05.209Z,93852.00
2023-02-03T02:52:05.219Z,93850.00
2023-02-03T02:53:05.234Z,93848.00
2023-02-03T02:54:05.226Z,93844.00
2023-02-03T02:55:05.263Z,93839.00
2023-02-03T02:56:05.269Z,93837.00
2023-02-03T02:57:05.270Z,93835.00
2023-02-03T02:58:05.312Z,93831.00
2023-02-03T02:59:05.295Z,93825.00
2023-02-03T03:00:05.307Z,93821.00
2023-02-03T03:01:05.308Z,93821.00
2023-02-03T03:02:05.318Z,93821.00
2023-02-03T03:03:05.340Z,93825.00
2023-02-03T03:04:05.350Z,93823.00
2023-02-03T03:05:05.405Z,93821.00
2023-02-03T03:06:05.358Z,93819.00
2023-02-03T03:07:05.365Z,93819.00
2023-02-03T03:08:05.493Z,93821.00
2023-02-03T03:09:05.402Z,93827.00
2023-02-03T03:10:05.386Z,93827.00
2023-02-03T03:11:05.403Z,93833.00
2023-02-03T03:12:05.409Z,93833.00
2023-02-03T03:13:05.428Z,93835.00
2023-02-03T03:14:05.437Z,93837.00
2023-02-03T03:15:05.819Z,93839.00
2023-02-03T03:16:05.529Z,93841.00
2023-02-03T03:17:05.801Z,93835.00
2023-02-03T03:18:05.475Z,93825.00
2023-02-03T03:19:05.485Z,93825.00
2023-02-03T03:20:05.578Z,93821.00
2023-02-03T03:21:05.512Z,93829.00
2023-02-03T03:22:05.510Z,93835.00
2023-02-03T03:23:05.532Z,93837.00
2023-02-03T03:24:05.538Z,93833.00
2023-02-03T03:25:05.587Z,93825.00
2023-02-03T03:26:05.562Z,93821.00
2023-02-03T03:27:05.558Z,93825.00
2023-02-03T03:28:05.651Z,93833.00
2023-02-03T03:29:05.587Z,93831.00
2023-02-03T03:30:05.602Z,93831.00
2023-02-03T03:31:05.657Z,93829.00
2023-02-03T03:32:05.732Z,93823.00
2023-02-03T03:33:05.674Z,93817.00
2023-02-03T03:34:05.615Z,93815.00
2023-02-03T03:35:05.645Z,93821.00
2023-02-03T03:36:05.631Z,93819.00
2023-02-03T03:37:05.656Z,93829.00
2023-02-03T03:38:05.659Z,93837.00
2023-02-03T03:39:05.656Z,93837.00
2023-02-03T03:40:05.666Z,93843.00
2023-02-03T03:41:05.675Z,93846.00
2023-02-03T03:42:05.694Z,93843.00
2023-02-03T03:43:06.320Z,93839.00
2023-02-03T03:44:05.705Z,93839.00
2023-02-03T03:45:05.709Z,93839.00
2023-02-03T03:46:05.769Z,93843.00
2023-02-03T03:47:05.754Z,93843.00
2023-02-03T04:15:06.023Z,93858.00
2023-02-03T06:01:10.542Z,93907.00
2023-02-03T06:02:10.598Z,93907.00
2023-02-03T06:03:10.601Z,93917.00
2023-02-03T06:04:10.613Z,93921.00
2023-02-03T06:05:10.559Z,93921.00
2023-02-03T06:06:10.570Z,93925.00
2023-02-03T06:07:10.614Z,93927.00
2023-02-03T06:08:10.597Z,93921.00
2023-02-03T06:09:10.595Z,93925.00
2023-02-03T06:10:10.604Z,93930.00
2023-02-03T06:11:10.586Z,93928.00
2023-02-03T06:12:10.638Z,93932.00
2023-02-03T06:13:10.873Z,93936.00
2023-02-03T06:14:10.617Z,93932.00
2023-02-03T06:15:10.635Z,93932.00
2023-02-03T06:16:10.705Z,93936.00
2023-02-03T06:17:10.633Z,93936.00
2023-02-03T06:18:10.647Z,93938.00
2023-02-03T06:19:10.631Z,93934.00
2023-02-03T06:20:10.648Z,93938.00
2023-02-03T06:21:10.649Z,93938.00
2023-02-03T06:22:10.708Z,93930.00
2023-02-03T06:23:10.659Z,93928.00
2023-02-03T06:24:10.661Z,93925.00
2023-02-03T06:25:13.099Z,93932.00
2023-02-03T06:26:10.840Z,93927.00
2023-02-03T06:27:10.838Z,93921.00
2023-02-03T06:28:10.906Z,93905.00
2023-02-03T06:29:10.859Z,93913.00
2023-02-03T06:30:10.946Z,93923.00
2023-02-03T06:31:12.068Z,93913.00
2023-02-03T06:32:10.900Z,93913.00
2023-02-03T06:33:11.890Z,93915.00
2023-02-03T06:34:10.982Z,93921.00
2023-02-03T06:35:11.039Z,93909.00
2023-02-03T06:36:11.088Z,93903.00
2023-02-03T06:37:11.143Z,93905.00
2023-02-03T06:38:12.156Z,93909.00
2023-02-03T06:39:11.140Z,93909.00
2023-02-03T06:40:11.136Z,93915.00
2023-02-03T06:41:11.127Z,93915.00
2023-02-03T06:42:11.131Z,93919.00
2023-02-03T06:43:11.126Z,93921.00
2023-02-03T06:44:11.105Z,93917.00
2023-02-03T06:45:11.124Z,93917.00
2023-02-03T06:46:11.148Z,93909.00
2023-02-03T06:47:11.090Z,93917.00
2023-02-03T06:48:11.070Z,93909.00
2023-02-03T06:49:11.055Z,93909.00
2023-02-03T06:50:11.047Z,93903.00
2023-02-03T06:51:11.053Z,93901.00
2023-02-03T06:52:11.027Z,93911.00
2023-02-03T06:53:11.029Z,93915.00
2023-02-03T06:54:11.015Z,93909.00
2023-02-03T06:55:11.078Z,93911.00
2023-02-03T06:56:10.996Z,93911.00
2023-02-03T06:57:11.000Z,93913.00
2023-02-03T06:58:10.987Z,93909.00
2023-02-03T06:59:10.984Z,93913.00
2023-02-03T07:00:13.598Z,93913.00
2023-02-03T07:01:11.025Z,93917.00
2023-02-03T07:02:10.931Z,93919.00
2023-02-03T07:03:10.918Z,93913.00
2023-02-03T07:04:10.915Z,93923.00
2023-02-03T07:05:10.896Z,93919.00
2023-02-03T07:06:10.889Z,93919.00
2023-02-03T07:07:10.882Z,93909.00
2023-02-03T07:08:11.378Z,93905.00
2023-02-03T07:09:10.862Z,93911.00
2023-02-03T07:10:10.851Z,93915.00
2023-02-03T07:11:10.839Z,93911.00
2023-02-03T07:12:10.815Z,93909.00
2023-02-03T07:13:10.820Z,93903.00
2023-02-03T07:14:10.808Z,93903.00
2023-02-03T07:15:10.786Z,93901.00
2023-02-03T07:16:11.440Z,93895.00
2023-02-03T07:17:10.773Z,93897.00
2023-02-03T07:18:11.763Z,93891.00
2023-02-03T07:19:10.751Z,93895.00
2023-02-03T07:20:10.798Z,93899.00
2023-02-03T07:21:10.736Z,93897.00
2023-02-03T07:22:10.740Z,93907.00
2023-02-03T07:23:10.737Z,93901.00
2023-02-03T07:24:10.730Z,93905.00
2023-02-03T07:25:10.741Z,93895.00
2023-02-03T07:26:10.711Z,93887.00
2023-02-03T07:27:10.702Z,93889.00
2023-02-03T07:28:11.432Z,93881.00
2023-02-03T07:29:10.897Z,93891.00
2023-02-03T07:30:10.697Z,93895.00
2023-02-03T07:31:10.917Z,93901.00
2023-02-03T07:32:10.739Z,93909.00
2023-02-03T07:33:11.388Z,93899.00
2023-02-03T07:34:10.694Z,93905.00
2023-02-03T07:35:10.685Z,93909.00
2023-02-03T07:36:10.693Z,93925.00
2023-02-03T07:37:10.696Z,93930.00
2023-02-03T07:38:10.750Z,93917.00
2023-02-03T07:39:10.663Z,93907.00
2023-02-03T07:40:10.694Z,93891.00
2023-02-03T07:41:10.674Z,93897.00
2023-02-03T07:42:10.705Z,93895.00
2023-02-03T07:43:10.652Z,93897.00
2023-02-03T07:44:10.631Z,93907.00
2023-02-03T07:45:10.641Z,93901.00
2023-02-03T07:46:10.656Z,93899.00
2023-02-03T07:47:12.553Z,93893.00
2023-02-03T07:48:10.638Z,93905.00
2023-02-03T07:49:13.392Z,93911.00
2023-02-03T07:50:12.424Z,93913.00
2023-02-03T07:51:10.608Z,93913.00
2023-02-03T07:52:10.612Z,93913.00
2023-02-03T07:53:10.604Z,93915.00
2023-02-03T07:55:10.736Z,93928.00
2023-02-03T07:56:10.615Z,93915.00
2023-02-03T07:57:11.387Z,93923.00
2023-02-03T07:58:10.626Z,93928.00
2023-02-03T07:59:10.627Z,93925.00
2023-02-03T08:00:10.610Z,93927.00
2023-02-03T08:01:10.675Z,93921.00
2023-02-03T08:02:10.700Z,93927.00
2023-02-03T08:03:10.719Z,93917.00
2023-02-03T08:04:10.803Z,93917.00
2023-02-03T08:05:10.933Z,93909.00
2023-02-03T08:06:10.967Z,93909.00
2023-02-03T08:07:11.013Z,93905.00
2023-02-03T08:08:11.034Z,93909.00
2023-02-03T08:09:11.122Z,93915.00
2023-02-03T08:10:11.162Z,93905.00
2023-02-03T08:11:11.232Z,93909.00
2023-02-03T08:12:11.287Z,93913.00
2023-02-03T08:13:11.358Z,93928.00
2023-02-03T08:14:11.399Z,93919.00
2023-02-03T08:15:11.465Z,93932.00
2023-02-03T08:16:11.570Z,93932.00
2023-02-03T08:17:12.404Z,93936.00
2023-02-03T08:18:11.742Z,93930.00
2023-02-03T08:19:12.736Z,93925.00
2023-02-03T08:20:11.788Z,93927.00
2023-02-03T08:21:11.872Z,93936.00
2023-02-03T08:22:11.924Z,93930.00
2023-02-03T08:23:11.971Z,93928.00
2023-02-03T08:24:12.047Z,93928.00
2023-02-03T08:25:12.077Z,93928.00
2023-02-03T08:26:12.096Z,93927.00
2023-02-03T08:27:12.111Z,93923.00
2023-02-03T08:28:12.166Z,93923.00
2023-02-03T08:29:12.169Z,93928.00
2023-02-03T08:30:12.136Z,93932.00
2023-02-03T08:31:12.213Z,93932.00
2023-02-03T08:32:12.282Z,93932.00
2023-02-03T08:33:12.147Z,93928.00
2023-02-03T08:34:12.171Z,93930.00
2023-02-03T08:35:12.202Z,93927.00
2023-02-03T08:36:12.215Z,93925.00
2023-02-03T08:37:12.190Z,93925.00
2023-02-03T08:38:12.191Z,93928.00
2023-02-03T08:39:12.216Z,93932.00
2023-02-03T08:40:12.192Z,93917.00
2023-02-03T08:41:12.341Z,93915.00
2023-02-03T08:42:12.227Z,93925.00
2023-02-03T08:43:12.273Z,93927.00
2023-02-03T08:44:12.310Z,93932.00
2023-02-03T08:45:12.369Z,93925.00
2023-02-03T08:46:12.469Z,93928.00
2023-02-03T08:47:12.484Z,93930.00
2023-02-03T08:48:12.528Z,93925.00
2023-02-03T08:49:12.587Z,93927.00
2023-02-03T08:50:12.636Z,93928.00
2023-02-03T08:51:12.697Z,93923.00
2023-02-03T08:52:12.765Z,93921.00
2023-02-03T08:53:12.830Z,93925.00
2023-02-03T08:54:13.417Z,93923.00
2023-02-03T08:55:12.992Z,93925.00
2023-02-03T08:56:12.983Z,93927.00
2023-02-03T08:57:13.024Z,93927.00
2023-02-03T08:58:13.068Z,93921.00
2023-02-03T08:59:13.154Z,93913.00
2023-02-03T09:00:13.150Z,93930.00
2023-02-03T09:01:13.300Z,93927.00
2023-02-03T09:02:13.264Z,93921.00
2023-02-03T09:03:13.314Z,93936.00
2023-02-03T09:04:13.356Z,93928.00
2023-02-03T09:05:13.445Z,93921.00
2023-02-03T09:06:13.455Z,93921.00
2023-02-03T09:07:13.607Z,93907.00
2023-02-03T09:08:13.696Z,93921.00
2023-02-03T09:09:13.613Z,93917.00
2023-02-03T09:10:13.676Z,93915.00
2023-02-03T09:11:13.725Z,93909.00
2023-02-03T09:12:13.775Z,93903.00
2023-02-03T09:13:13.832Z,93907.00
2023-02-03T09:14:13.832Z,93913.00
2023-02-03T09:15:13.844Z,93911.00
2023-02-03T09:16:13.849Z,93903.00
2023-02-03T09:17:14.345Z,93905.00
2023-02-03T09:18:13.894Z,93913.00
2023-02-03T09:19:13.937Z,93897.00
2023-02-03T09:20:14.076Z,93893.00
2023-02-03T09:21:23.888Z,93909.00
2023-02-03T09:22:15.057Z,93895.00
2023-02-03T09:23:14.079Z,93897.00
2023-02-03T09:24:14.039Z,93881.00
2023-02-03T09:25:14.052Z,93891.00
2023-02-03T09:26:14.026Z,93880.00
2023-02-03T09:27:14.918Z,93880.00
2023-02-03T09:28:14.084Z,93893.00
2023-02-03T09:29:14.020Z,93893.00
2023-02-03T09:30:14.038Z,93899.00
2023-02-03T09:31:14.141Z,93893.00
2023-02-03T09:32:15.538Z,93889.00
2023-02-03T09:33:14.103Z,93889.00
2023-02-03T09:34:14.167Z,93876.00
2023-02-03T09:35:14.239Z,93881.00
2023-02-03T09:36:14.302Z,93860.00
2023-02-03T09:37:14.400Z,93881.00
2023-02-03T09:38:14.361Z,93885.00
2023-02-03T09:39:14.478Z,93883.00
2023-02-03T09:40:14.406Z,93878.00
2023-02-03T09:41:14.442Z,93878.00
2023-02-03T09:42:14.497Z,93874.00
2023-02-03T09:43:14.543Z,93860.00
2023-02-03T09:44:14.593Z,93856.00
2023-02-03T09:45:14.708Z,93854.00
2023-02-03T09:46:14.671Z,93858.00
2023-02-03T09:47:14.684Z,93858.00
2023-02-03T09:49:14.622Z,93876.00
2023-02-03T09:50:14.615Z,93860.00
2023-02-03T09:51:15.353Z,93862.00
2023-02-03T09:52:15.481Z,93864.00
2023-02-03T09:53:14.582Z,93866.00
2023-02-03T09:55:14.560Z,93858.00
2023-02-03T09:56:14.549Z,93862.00
2023-02-03T09:57:14.553Z,93862.00
2023-02-03T09:58:15.362Z,93862.00
2023-02-03T09:59:14.517Z,93862.00
2023-02-03T10:00:14.519Z,93850.00
2023-02-03T10:01:14.560Z,93846.00
2023-02-03T10:02:15.614Z,93850.00
2023-02-03T10:03:14.593Z,93843.00
2023-02-03T10:04:14.629Z,93841.00
2023-02-03T10:05:14.688Z,93843.00
2023-02-03T10:06:14.811Z,93854.00
2023-02-03T10:07:14.823Z,93848.00
2023-02-03T10:09:14.978Z,93848.00
2023-02-03T10:10:14.957Z,93835.00
2023-02-03T10:11:15.054Z,93839.00
2023-02-03T10:12:15.066Z,93821.00
2023-02-03T10:13:15.114Z,93839.00
2023-02-03T10:14:15.162Z,93833.00
2023-02-03T10:15:15.221Z,93827.00
2023-02-03T10:16:15.315Z,93835.00
2023-02-03T10:17:15.308Z,93833.00
2023-02-03T10:18:15.365Z,93839.00
2023-02-03T10:19:15.414Z,93825.00
2023-02-03T10:20:15.470Z,93825.00
2023-02-03T10:21:15.541Z,93819.00
2023-02-03T10:22:15.577Z,93827.00
2023-02-03T10:23:15.613Z,93821.00
2023-02-03T10:24:15.637Z,93819.00
2023-02-03T10:25:15.623Z,93819.00
2023-02-03T10:26:16.371Z,93833.00
2023-02-03T10:27:15.610Z,93821.00
2023-02-03T10:28:15.668Z,93819.00
2023-02-03T10:29:15.604Z,93825.00
2023-02-03T10:30:15.633Z,93821.00
2023-02-03T10:31:15.699Z,93811.00
2023-02-03T10:32:15.722Z,93811.00
2023-02-03T10:33:15.636Z,93801.00
2023-02-03T10:34:15.652Z,93793.00
2023-02-03T10:35:15.640Z,93803.00
2023-02-03T10:36:15.634Z,93813.00
2023-02-03T10:37:15.624Z,93825.00
2023-02-03T10:38:15.671Z,93811.00
2023-02-03T10:39:15.624Z,93805.00
2023-02-03T10:40:15.634Z,93801.00
2023-02-03T10:41:15.720Z,93791.00
2023-02-03T10:42:15.674Z,93789.00
2023-02-03T10:43:15.726Z,93788.00
2023-02-03T10:45:15.814Z,93791.00
2023-02-03T10:46:15.918Z,93786.00
2023-02-03T10:47:15.887Z,93789.00
2023-02-03T10:48:15.945Z,93786.00
2023-02-03T10:49:15.967Z,93776.00
2023-02-03T10:50:15.975Z,93774.00
2023-02-03T10:52:15.975Z,93786.00
2023-02-03T10:53:16.010Z,93784.00
2023-02-03T10:54:16.039Z,93776.00
2023-02-03T10:56:16.228Z,93770.00
2023-02-03T10:57:16.185Z,93770.00
2023-02-03T11:09:16.270Z,93746.00
2023-02-03T11:10:16.250Z,93741.00
2023-02-03T11:11:16.249Z,93742.00
2023-02-03T11:12:16.280Z,93733.00
2023-02-03T11:13:16.282Z,93731.00
2023-02-03T11:14:16.927Z,93737.00
2023-02-03T11:15:16.254Z,93739.00
2023-02-03T13:36:19.590Z,93560.00
2023-02-03T15:07:24.044Z,93545.00
2023-02-03T15:08:23.398Z,93537.00
2023-02-03T15:09:23.602Z,93541.00
2023-02-03T15:10:23.519Z,93547.00
2023-02-03T15:11:23.536Z,93554.00
2023-02-03T15:12:23.602Z,93554.00
2023-02-03T15:13:23.643Z,93554.00
2023-02-03T15:14:23.680Z,93550.00
2023-02-03T15:15:23.746Z,93552.00
2023-02-03T15:16:23.823Z,93550.00
2023-02-03T15:17:23.819Z,93545.00
2023-02-03T15:18:23.846Z,93554.00
2023-02-03T15:19:23.870Z,93545.00
2023-02-03T15:20:23.874Z,93545.00
2023-02-03T15:21:23.885Z,93543.00
2023-02-03T15:22:23.902Z,93537.00
2023-02-03T15:23:23.935Z,93543.00
2023-02-03T15:24:23.948Z,93539.00
2023-02-03T15:25:23.987Z,93531.00
2023-02-03T16:51:24.515Z,93537.00
2023-02-03T17:06:24.478Z,93560.00
2023-02-03T17:07:24.459Z,93558.00
2023-02-03T17:08:24.474Z,93570.00
2023-02-03T20:33:58.108Z,93737.00
2023-02-03T20:34:58.135Z,93737.00
2023-02-03T20:35:58.147Z,93735.00
2023-02-03T20:36:58.161Z,93737.00
2023-02-03T20:37:58.181Z,93735.00
2023-02-03T20:38:58.209Z,93739.00
2023-02-03T20:39:58.242Z,93739.00
2023-02-03T20:40:58.260Z,93733.00
2023-02-03T20:41:58.273Z,93731.00
2023-02-03T20:42:58.355Z,93731.00
2023-02-03T20:43:58.313Z,93737.00
2023-02-03T20:44:58.334Z,93735.00
2023-02-03T20:45:58.353Z,93731.00
2023-02-03T20:46:58.454Z,93727.00
2023-02-03T20:47:58.479Z,93725.00
2023-02-03T20:48:58.419Z,93727.00
2023-02-03T20:49:58.432Z,93727.00
2023-02-03T20:50:58.451Z,93729.00
2023-02-03T20:51:58.465Z,93723.00
2023-02-03T20:52:58.502Z,93715.00
2023-02-03T20:53:58.519Z,93717.00
2023-02-03T20:54:58.543Z,93725.00
2023-02-03T20:55:58.559Z,93721.00
2023-02-03T20:56:58.578Z,93723.00
2023-02-03T20:57:58.599Z,93717.00
2023-02-03T20:58:58.667Z,93711.00
2023-02-03T20:59:58.659Z,93705.00
2023-02-03T21:00:58.717Z,93709.00
2023-02-03T21:01:58.757Z,93713.00
2023-02-03T21:02:58.708Z,93717.00
2023-02-03T21:03:58.740Z,93709.00
2023-02-03T21:04:58.771Z,93715.00
2023-02-03T21:05:58.875Z,93711.00
2023-02-03T21:06:58.788Z,93715.00
2023-02-03T21:07:58.817Z,93719.00
2023-02-03T21:08:58.838Z,93715.00
2023-02-03T21:09:58.863Z,93705.00
2023-02-03T21:10:58.876Z,93703.00
2023-02-03T21:11:58.949Z,93699.00
2023-02-03T21:12:58.935Z,93699.00
2023-02-03T21:13:58.949Z,93701.00
2023-02-03T21:14:59.045Z,93705.00
2023-02-03T21:15:59.022Z,93703.00
2023-02-03T21:16:59.088Z,93697.00
2023-02-03T21:17:59.016Z,93699.00
2023-02-03T21:18:59.057Z,93703.00
2023-02-03T21:19:59.075Z,93713.00
2023-02-03T21:20:59.090Z,93707.00
2023-02-03T21:21:59.107Z,93701.00
2023-02-03T21:22:59.133Z,93699.00
2023-02-03T21:23:59.285Z,93701.00
2023-02-03T21:24:59.177Z,93699.00
2023-02-03T21:25:59.189Z,93701.00
2023-02-03T21:26:59.201Z,93709.00
2023-02-03T21:27:59.253Z,93707.00
2023-02-03T21:28:59.242Z,93703.00
2023-02-03T21:29:59.265Z,93701.00
2023-02-03T21:30:59.366Z,93703.00
2023-02-03T21:31:59.386Z,93699.00
2023-02-03T21:32:59.287Z,93694.00
2023-02-03T21:33:59.307Z,93695.00
2023-02-03T21:34:59.312Z,93697.00
2023-02-03T21:35:59.794Z,93697.00
2023-02-03T21:36:59.341Z,93697.00
2023-02-03T21:37:59.366Z,93707.00
2023-02-03T21:38:59.365Z,93709.00
2023-02-03T21:39:59.451Z,93711.00
2023-02-03T21:40:59.391Z,93709.00
2023-02-03T21:41:59.400Z,93711.00
2023-02-03T21:42:59.406Z,93707.00
2023-02-03T21:43:59.422Z,93703.00
